Time;durP1;ratioP1;P1;durP2;ratioP2;P2;SDS_P1;SDS_P2;PMS_P1;PMS_P2;Temp;Humidity;BMP_temperature;BMP_pressure;BME280_temperature;BME280_humidity;BME280_pressure;Samples;Min_cycle;Max_cycle;Signal;HPM_P1;HPM_P2
2021/09/22 00:02:21;;;;;;;20.02;8.35;;;;;;;11.18;100.00;98773.66;4987852;28;20485;-84
2021/09/22 00:04:48;;;;;;;14.52;7.85;;;;;;;11.10;100.00;98764.28;4987919;28;20050;-83
2021/09/22 00:07:17;;;;;;;17.55;8.35;;;;;;;10.96;100.00;98739.00;4987310;28;20066;-82
2021/09/22 00:09:45;;;;;;;16.15;7.85;;;;;;;11.00;100.00;98748.16;4985533;28;20073;-83
2021/09/22 00:12:12;;;;;;;18.40;8.60;;;;;;;11.01;100.00;98747.06;4986916;28;20513;-83
2021/09/22 00:14:41;;;;;;;14.63;7.72;;;;;;;11.04;100.00;98737.56;5002877;28;20060;-82
2021/09/22 00:17:08;;;;;;;12.15;7.70;;;;;;;11.19;100.00;98756.31;5001581;28;20045;-83
2021/09/22 00:19:37;;;;;;;11.27;7.18;;;;;;;11.07;100.00;98732.34;4986512;28;20141;-84
2021/09/22 00:22:04;;;;;;;20.92;8.20;;;;;;;11.17;100.00;98747.69;4984995;28;20358;-84
2021/09/22 00:24:31;;;;;;;15.07;8.93;;;;;;;11.19;100.00;98759.84;4985005;28;20080;-83
2021/09/22 00:26:58;;;;;;;15.20;8.45;;;;;;;11.17;100.00;98748.47;4984861;28;20073;-85
2021/09/22 00:29:30;;;;;;;14.40;7.65;;;;;;;11.10;100.00;98744.50;4985150;28;20053;-83
2021/09/22 00:31:57;;;;;;;15.15;8.55;;;;;;;11.17;100.00;98729.50;4983709;28;20050;-85
2021/09/22 00:34:27;;;;;;;14.35;7.72;;;;;;;11.27;100.00;98739.41;4982307;28;20050;-85
2021/09/22 00:36:54;;;;;;;15.82;7.85;;;;;;;11.17;100.00;98736.84;4983610;28;20053;-83
2021/09/22 00:39:25;;;;;;;14.82;8.50;;;;;;;11.38;100.00;98740.84;4982266;28;20046;-85
2021/09/22 00:41:51;;;;;;;13.85;8.32;;;;;;;11.23;100.00;98725.63;4983219;28;20084;-84
2021/09/22 00:44:21;;;;;;;14.45;7.90;;;;;;;11.36;100.00;98734.94;4982838;28;20510;-84
2021/09/22 00:46:48;;;;;;;14.20;7.55;;;;;;;11.34;100.00;98736.31;4982784;28;20069;-84
2021/09/22 00:49:22;;;;;;;16.55;8.02;;;;;;;11.30;100.00;98729.88;4983862;28;20137;-84
2021/09/22 00:51:55;;;;;;;14.50;7.22;;;;;;;11.26;100.00;98725.03;4983459;28;20509;-84
2021/09/22 00:54:38;;;;;;;13.07;8.25;;;;;;;11.21;100.00;98705.31;4981518;28;20084;-84
2021/09/22 00:57:20;;;;;;;12.20;7.80;;;;;;;11.19;100.00;98711.06;4982794;28;20054;-85
2021/09/22 00:59:56;;;;;;;13.27;7.55;;;;;;;11.35;100.00;98725.19;4982233;28;20077;-84
2021/09/22 01:02:50;;;;;;;15.57;8.27;;;;;;;11.38;100.00;98735.44;4983184;28;20045;-84
2021/09/22 01:05:40;;;;;;;12.25;7.18;;;;;;;11.30;100.00;98719.03;4983708;28;20069;-84
2021/09/22 01:08:10;;;;;;;11.88;7.20;;;;;;;11.36;100.00;98723.28;4981281;28;20291;-83
2021/09/22 01:10:37;;;;;;;15.57;8.05;;;;;;;11.42;100.00;98741.09;4980889;28;20083;-84
2021/09/22 01:13:04;;;;;;;11.80;7.40;;;;;;;11.45;100.00;98732.38;4977945;28;20045;-84
2021/09/22 01:15:45;;;;;;;11.27;7.22;;;;;;;11.35;100.00;98711.66;4963658;28;20043;-83
2021/09/22 01:18:23;;;;;;;13.68;7.90;;;;;;;11.46;100.00;98728.56;4960640;28;20050;-84
2021/09/22 01:20:53;;;;;;;;;;;;;;;11.48;100.00;98735.31;4960734;28;20115;-84
2021/09/22 01:23:26;;;;;;;12.27;7.50;;;;;;;11.39;100.00;98719.97;4960648;28;19922;-84
2021/09/22 01:25:53;;;;;;;14.98;7.95;;;;;;;11.44;100.00;98741.59;4980738;28;20076;-85
2021/09/22 01:28:36;;;;;;;17.13;8.52;;;;;;;11.44;100.00;98725.31;4969515;28;20058;-84
2021/09/22 01:31:05;;;;;;;12.50;7.53;;;;;;;11.51;100.00;98723.06;4979387;28;20054;-85
2021/09/22 01:33:32;;;;;;;14.88;7.90;;;;;;;11.55;100.00;98737.66;4963422;28;20077;-85
2021/09/22 01:35:59;;;;;;;13.68;7.90;;;;;;;11.56;100.00;98733.84;4979234;28;20068;-85
2021/09/22 01:38:29;;;;;;;15.93;8.10;;;;;;;11.59;100.00;98744.09;4961118;28;20083;-84
2021/09/22 01:41:25;;;;;;;11.98;7.88;;;;;;;11.76;100.00;98737.09;4961031;28;20046;-84
2021/09/22 01:43:56;;;;;;;13.40;7.88;;;;;;;11.67;100.00;98727.97;4945893;28;20528;-84
2021/09/22 01:46:23;;;;;;;13.90;7.97;;;;;;;11.61;100.00;98739.19;4959931;28;20046;-84
2021/09/22 01:48:53;;;;;;;14.43;7.68;;;;;;;11.64;100.00;98722.34;4959945;28;20050;-85
2021/09/22 01:51:21;;;;;;;16.73;7.80;;;;;;;11.67;100.00;98724.44;4959796;28;20086;-85
2021/09/22 01:54:19;;;;;;;21.27;8.48;;;;;;;11.73;100.00;98720.59;4960373;28;20057;-85
2021/09/22 01:56:46;;;;;;;14.57;8.05;;;;;;;11.65;100.00;98721.22;4976319;28;20470;-84
2021/09/22 01:59:21;;;;;;;12.55;7.45;;;;;;;11.65;100.00;98718.50;4961435;28;20072;-84
2021/09/22 02:02:00;;;;;;;14.95;7.43;;;;;;;11.69;100.00;98716.88;4960978;28;20081;-86
2021/09/22 02:04:27;;;;;;;;;;;;;;;11.79;100.00;98716.69;4960961;28;20126;-86
2021/09/22 02:06:54;;;;;;;16.35;8.25;;;;;;;11.76;100.00;98711.84;4959852;28;19932;-84
2021/09/22 02:09:21;;;;;;;13.00;7.88;;;;;;;11.62;100.00;98694.69;4976022;28;20072;-85
2021/09/22 02:11:57;;;;;;;17.73;8.23;;;;;;;11.78;100.00;98717.78;4959789;28;20084;-84
2021/09/22 02:14:24;;;;;;;15.05;7.97;;;;;;;11.76;100.00;98712.66;4960199;28;20387;-85
2021/09/22 02:17:43;;;;;;;14.35;7.82;;;;;;;11.78;100.00;98729.44;4959752;28;20050;-85
2021/09/22 02:21:08;;;;;;;;;;;;;;;11.75;100.00;98716.47;4959993;28;20054;-83
2021/09/22 02:23:40;;;;;;;17.20;7.43;;;;;;;11.72;100.00;98695.34;4976578;28;20012;-84
2021/09/22 02:26:07;;;;;;;19.85;8.43;;;;;;;11.77;100.00;98703.41;4975819;28;20050;-85
2021/09/22 02:28:38;;;;;;;13.65;7.43;;;;;;;11.71;100.00;98690.25;4959285;28;20062;-86
2021/09/22 02:31:05;;;;;;;17.20;8.48;;;;;;;11.65;100.00;98685.97;4960267;28;20086;-85
2021/09/22 02:33:32;;;;;;;17.02;8.48;;;;;;;11.69;100.00;98706.78;4961219;28;20054;-84
2021/09/22 02:35:59;;;;;;;17.63;8.25;;;;;;;11.70;100.00;98688.63;4961192;28;20049;-85
2021/09/22 02:38:26;;;;;;;16.17;8.30;;;;;;;11.74;100.00;98697.78;4976557;28;20089;-85
2021/09/22 02:40:53;;;;;;;18.90;8.75;;;;;;;11.77;100.00;98703.41;4962744;28;20054;-85
2021/09/22 02:43:20;;;;;;;13.70;7.85;;;;;;;11.67;100.00;98691.88;4963401;28;20046;-85
2021/09/22 02:45:49;;;;;;;14.25;8.70;;;;;;;11.73;100.00;98713.25;4963719;28;20081;-84
2021/09/22 02:48:16;;;;;;;15.68;8.32;;;;;;;11.71;100.00;98707.31;4963280;28;20069;-84
2021/09/22 02:50:46;;;;;;;19.17;9.10;;;;;;;11.67;100.00;98700.03;4962483;28;20054;-85
2021/09/22 02:53:13;;;;;;;14.93;8.25;;;;;;;11.69;100.00;98693.22;4978148;28;20057;-84
2021/09/22 02:55:43;;;;;;;16.55;8.85;;;;;;;11.74;100.00;98704.00;4978663;28;20044;-85
2021/09/22 02:58:10;;;;;;;15.32;8.23;;;;;;;11.72;100.00;98713.53;4964119;28;20050;-85
2021/09/22 03:00:43;;;;;;;18.02;8.32;;;;;;;11.77;100.00;98703.41;4981664;28;20043;-84
2021/09/22 03:03:10;;;;;;;14.38;8.25;;;;;;;11.78;100.00;98709.66;4963283;28;20141;-85
2021/09/22 03:05:37;;;;;;;15.98;7.80;;;;;;;11.87;100.00;98716.03;4962781;28;20053;-84
2021/09/22 03:08:04;;;;;;;13.82;7.97;;;;;;;11.75;100.00;98707.53;4962395;28;20165;-84
2021/09/22 03:10:37;;;;;;;22.73;8.82;;;;;;;11.67;100.00;98706.25;4978485;28;20042;-85
2021/09/22 03:13:04;;;;;;;14.18;8.07;;;;;;;11.54;100.00;98700.78;4975480;28;20042;-85
2021/09/22 03:15:34;;;;;;;15.45;8.77;;;;;;;11.50;100.00;98705.19;4964284;28;20052;-85
2021/09/22 03:18:00;;;;;;;22.90;8.68;;;;;;;11.47;100.00;98701.16;4977226;28;20058;-85
2021/09/22 03:20:34;;;;;;;18.00;8.82;;;;;;;11.46;100.00;98712.31;4962691;28;20262;-85
2021/09/22 03:23:03;;;;;;;15.18;9.00;;;;;;;11.49;100.00;98717.13;4977507;28;20050;-84
2021/09/22 03:25:30;;;;;;;17.30;8.98;;;;;;;11.55;100.00;98707.81;4961137;28;20054;-84
2021/09/22 03:27:56;;;;;;;21.08;8.95;;;;;;;11.65;100.00;98711.19;4961308;28;20352;-84
2021/09/22 03:30:24;;;;;;;20.50;9.48;;;;;;;11.74;100.00;98722.22;4961703;28;20050;-84
2021/09/22 03:32:51;;;;;;;20.80;8.52;;;;;;;11.81;100.00;98726.16;4963506;28;20050;-84
2021/09/22 03:35:21;;;;;;;19.45;9.10;;;;;;;11.79;100.00;98713.97;4962579;28;20129;-84
2021/09/22 03:37:48;;;;;;;22.35;8.75;;;;;;;11.85;100.00;98710.88;4978833;28;20058;-84
2021/09/22 03:40:17;;;;;;;26.17;9.65;;;;;;;11.87;100.00;98716.03;4974985;28;20056;-84
2021/09/22 03:42:44;;;;;;;17.63;9.05;;;;;;;11.95;100.00;98726.19;5014607;28;20069;-84
2021/09/22 03:45:17;;;;;;;17.92;8.65;;;;;;;11.88;100.00;98704.88;4980388;28;20137;-85
2021/09/22 03:47:47;;;;;;;20.25;9.45;;;;;;;12.03;100.00;98717.34;4982329;28;20045;-85
2021/09/22 03:50:15;;;;;;;18.92;9.23;;;;;;;12.05;100.00;98717.09;4991208;28;20664;-85
2021/09/22 03:52:45;;;;;;;18.33;8.98;;;;;;;12.10;100.00;98719.72;4982265;28;20049;-85
2021/09/22 03:56:11;;;;;;;19.92;8.52;;;;;;;11.93;100.00;98705.88;4976581;28;20065;-85
2021/09/22 04:03:24;;;;;;;25.40;9.27;;;;;;;12.14;100.00;98737.81;4988928;28;20050;-85
2021/09/22 04:06:35;;;;;;;19.80;9.60;;;;;;;12.15;100.00;98725.84;4935323;29;20148;-84
2021/09/22 04:09:28;;;;;;;18.45;8.40;;;;;;;12.29;100.00;98742.16;4921217;29;20047;-85
2021/09/22 04:11:58;;;;;;;21.35;9.07;;;;;;;12.16;100.00;98730.16;4902631;29;20048;-84
2021/09/22 04:14:34;;;;;;;24.88;9.63;;;;;;;12.07;100.00;98721.09;4916123;29;20111;-83
2021/09/22 04:17:01;;;;;;;24.95;9.50;;;;;;;12.12;100.00;98709.34;4916915;29;20142;-84
2021/09/22 04:19:29;;;;;;;24.42;9.23;;;;;;;12.10;100.00;98717.00;4907416;29;20062;-81
2021/09/22 04:22:06;;;;;;;24.73;9.30;;;;;;;12.25;100.00;98733.81;4936020;28;20054;-82
2021/09/22 04:24:32;;;;;;;22.85;8.98;;;;;;;12.43;100.00;98735.66;5000162;28;20042;-84
2021/09/22 04:26:59;;;;;;;22.38;8.93;;;;;;;12.28;100.00;98729.69;5012224;28;20058;-82
2021/09/22 04:29:26;;;;;;;22.02;9.18;;;;;;;12.30;100.00;98735.63;4982693;28;20060;-84
2021/09/22 04:32:12;;;;;;;22.92;9.65;;;;;;;12.32;100.00;98731.50;4988165;28;20056;-85
2021/09/22 04:34:49;;;;;;;19.05;9.93;;;;;;;12.23;100.00;98736.00;5006823;23;20051;-80
2021/09/22 04:37:16;;;;;;;17.75;9.00;;;;;;;12.22;100.00;98737.13;4995162;28;20061;-80
2021/09/22 04:39:42;;;;;;;26.02;9.82;;;;;;;12.36;100.00;98751.53;4995562;28;20053;-80
2021/09/22 04:42:09;;;;;;;26.42;10.07;;;;;;;12.39;100.00;98755.56;5008457;28;20046;-79
2021/09/22 04:44:36;;;;;;;26.55;9.88;;;;;;;12.39;100.00;98750.13;4982954;28;20489;-79
2021/09/22 04:47:02;;;;;;;22.08;9.88;;;;;;;12.16;100.00;98749.16;4998706;28;20053;-79
2021/09/22 04:49:30;;;;;;;25.23;9.68;;;;;;;12.30;100.00;98752.72;5016283;28;20045;-79
2021/09/22 04:51:57;;;;;;;23.02;9.52;;;;;;;12.36;100.00;98762.38;5015599;28;20678;-79
2021/09/22 04:54:24;;;;;;;22.85;9.55;;;;;;;12.28;100.00;98754.94;5014794;28;20060;-80
2021/09/22 04:56:50;;;;;;;27.77;10.02;;;;;;;12.31;100.00;98759.75;5013553;28;20513;-80
2021/09/22 04:59:17;;;;;;;22.35;9.23;;;;;;;12.33;100.00;98765.72;5018518;28;20038;-79
2021/09/22 05:01:46;;;;;;;20.90;9.50;;;;;;;12.21;100.00;98751.78;5015501;28;20454;-80
2021/09/22 05:04:14;;;;;;;27.65;9.98;;;;;;;12.25;100.00;98747.41;4995374;28;20050;-79
2021/09/22 05:06:40;;;;;;;26.63;9.52;;;;;;;12.33;100.00;98762.19;5010652;28;20041;-79
2021/09/22 05:09:07;;;;;;;28.13;10.07;;;;;;;12.14;100.00;98759.53;5013167;28;20053;-79
2021/09/22 05:11:33;;;;;;;24.30;10.40;;;;;;;12.19;100.00;98751.28;5012638;28;20638;-80
2021/09/22 05:14:00;;;;;;;30.50;10.30;;;;;;;12.27;100.00;98760.66;4995436;28;20057;-80
2021/09/22 05:16:27;;;;;;;25.08;10.35;;;;;;;12.09;100.00;98762.31;5013023;28;20057;-80
2021/09/22 05:18:53;;;;;;;24.50;9.50;;;;;;;12.17;100.00;98761.66;5017231;28;20140;-80
2021/09/22 05:21:20;;;;;;;25.20;10.15;;;;;;;12.03;100.00;98768.13;5006079;28;20099;-79
2021/09/22 05:23:46;;;;;;;24.42;10.30;;;;;;;12.16;100.00;98770.06;5029567;28;20054;-78
2021/09/22 05:26:13;;;;;;;27.35;10.85;;;;;;;12.24;100.00;98769.41;5013053;28;20056;-79
2021/09/22 05:28:40;;;;;;;27.98;10.93;;;;;;;12.18;100.00;98763.25;5011312;28;20691;-80
2021/09/22 05:31:06;;;;;;;30.73;10.80;;;;;;;12.22;100.00;98777.84;5008188;28;20053;-80
2021/09/22 05:33:33;;;;;;;30.83;10.35;;;;;;;12.40;100.00;98779.72;5011685;28;20046;-79
2021/09/22 05:35:59;;;;;;;33.17;11.02;;;;;;;12.26;100.00;98778.84;4992790;28;20042;-79
2021/09/22 05:38:26;;;;;;;28.05;10.38;;;;;;;12.46;100.00;98783.94;5010797;28;20458;-79
2021/09/22 05:40:52;;;;;;;31.58;9.90;;;;;;;12.28;100.00;98784.81;4993628;28;20053;-78
2021/09/22 05:43:20;;;;;;;36.70;11.38;;;;;;;12.48;100.00;98787.19;5012557;28;20054;-79
2021/09/22 05:45:47;;;;;;;32.97;10.88;;;;;;;12.38;100.00;98790.06;5013351;28;20034;-78
2021/09/22 05:48:14;;;;;;;29.38;9.63;;;;;;;12.42;100.00;98795.69;5014825;28;20073;-80
2021/09/22 05:50:40;;;;;;;25.85;9.80;;;;;;;12.32;100.00;98780.38;5016255;28;20069;-80
2021/09/22 05:53:07;;;;;;;35.55;10.60;;;;;;;12.47;100.00;98777.41;4998861;28;20050;-79
2021/09/22 05:55:34;;;;;;;37.15;10.52;;;;;;;12.45;100.00;98782.34;4999944;28;20560;-81
2021/09/22 05:58:00;;;;;;;31.45;10.43;;;;;;;12.44;100.00;98782.63;4998133;28;20050;-80
2021/09/22 06:00:29;;;;;;;31.70;10.52;;;;;;;12.45;100.00;98782.34;5002028;28;20042;-78
2021/09/22 06:02:56;;;;;;;32.95;10.90;;;;;;;12.41;100.00;98761.50;5001910;28;20104;-77
2021/09/22 06:05:23;;;;;;;34.25;10.43;;;;;;;12.65;100.00;98788.50;5020306;28;20057;-79
2021/09/22 06:07:49;;;;;;;28.02;10.05;;;;;;;12.77;100.00;98784.19;5000697;28;20045;-78
2021/09/22 06:10:16;;;;;;;29.38;10.63;;;;;;;12.73;100.00;98794.03;5016408;28;20046;-80
2021/09/22 06:12:42;;;;;;;28.48;10.00;;;;;;;12.69;100.00;98778.66;5014313;28;20045;-79
2021/09/22 06:15:10;;;;;;;37.40;9.90;;;;;;;12.67;100.00;98794.44;4991357;28;20133;-79
2021/09/22 06:17:36;;;;;;;36.97;10.32;;;;;;;12.77;100.00;98786.09;5011642;28;20041;-80
2021/09/22 06:20:03;;;;;;;29.48;9.68;;;;;;;12.87;100.00;98797.59;5009474;28;20049;-79
2021/09/22 06:22:31;;;;;;;41.95;10.35;;;;;;;12.97;100.00;98791.16;5015670;28;20053;-79
2021/09/22 06:24:58;;;;;;;31.90;10.20;;;;;;;13.18;100.00;98797.81;5002057;28;20053;-78
2021/09/22 06:27:25;;;;;;;35.50;10.27;;;;;;;13.31;100.00;98791.56;5018165;28;20050;-79
2021/09/22 06:29:52;;;;;;;33.20;9.95;;;;;;;13.37;100.00;98784.13;5019665;28;20244;-79
2021/09/22 06:32:19;;;;;;;38.90;10.25;;;;;;;13.37;100.00;98792.28;5016462;28;20046;-79
2021/09/22 06:34:46;;;;;;;33.58;10.15;;;;;;;13.23;100.00;98795.00;5018295;28;20104;-80
2021/09/22 06:37:13;;;;;;;32.92;10.18;;;;;;;13.38;100.00;98802.84;4998523;28;20335;-79
2021/09/22 06:39:39;;;;;;;36.22;10.02;;;;;;;13.38;100.00;98789.25;5017164;28;20061;-79
2021/09/22 06:42:06;;;;;;;32.17;9.40;;;;;;;13.37;100.00;98795.00;5015920;28;20049;-79
2021/09/22 06:44:33;;;;;;;29.80;9.88;;;;;;;13.32;100.00;98795.06;5012312;28;20046;-79
2021/09/22 06:47:00;;;;;;;36.60;10.27;;;;;;;13.32;100.00;98806.75;5012172;28;20046;-79
2021/09/22 06:49:27;;;;;;;30.90;9.98;;;;;;;13.42;100.00;98806.53;4976172;28;20120;-79
2021/09/22 06:51:54;;;;;;;34.38;10.77;;;;;;;13.53;100.00;98810.66;5010963;28;20052;-79
2021/09/22 06:54:20;;;;;;;29.73;10.40;;;;;;;13.49;100.00;98811.59;5013331;28;20057;-79
2021/09/22 06:56:47;;;;;;;35.17;11.07;;;;;;;13.57;100.00;98805.44;5017023;28;20053;-78
2021/09/22 06:59:14;;;;;;;34.17;11.20;;;;;;;13.62;100.00;98805.31;4983306;28;20046;-80
2021/09/22 07:01:40;;;;;;;40.90;11.18;;;;;;;13.79;100.00;98807.38;5018711;28;20289;-80
2021/09/22 07:04:07;;;;;;;38.50;11.07;;;;;;;13.84;100.00;98804.53;5017125;28;20048;-79
2021/09/22 07:06:35;;;;;;;29.60;10.02;;;;;;;13.80;100.00;98815.25;5020457;28;20108;-78
2021/09/22 07:09:02;;;;;;;36.40;11.00;;;;;;;13.99;100.00;98799.53;5016285;28;20045;-78
2021/09/22 07:11:29;;;;;;;35.45;10.88;;;;;;;13.80;100.00;98812.53;5001127;28;20050;-79
2021/09/22 07:13:55;;;;;;;40.03;10.40;;;;;;;13.73;100.00;98809.41;5025812;28;20144;-79
2021/09/22 07:16:22;;;;;;;38.58;10.63;;;;;;;13.87;100.00;98817.53;5021898;28;20041;-80
2021/09/22 07:18:48;;;;;;;36.33;11.80;;;;;;;13.90;100.00;98814.22;5002591;28;20104;-79
2021/09/22 07:21:16;;;;;;;36.17;10.27;;;;;;;13.87;100.00;98812.91;5002928;28;20419;-79
2021/09/22 07:23:42;;;;;;;39.53;10.93;;;;;;;13.91;100.00;98824.00;4997385;28;20225;-78
2021/09/22 07:26:09;;;;;;;31.23;9.65;;;;;;;13.83;100.00;98822.00;5013320;28;20083;-80
2021/09/22 07:28:36;;;;;;;42.60;10.85;;;;;;;13.88;100.00;98825.41;4997498;28;20462;-81
2021/09/22 07:31:04;;;;;;;33.72;9.30;;;;;;;13.73;100.00;98834.72;5017307;28;20685;-80
2021/09/22 07:33:31;;;;;;;33.03;9.18;;;;;;;13.93;100.00;98828.03;5033022;28;20563;-80
2021/09/22 07:35:57;;;;;;;31.33;9.65;;;;;;;14.01;100.00;98838.19;4996213;28;20041;-78
2021/09/22 07:38:26;;;;;;;26.15;9.18;;;;;;;14.11;100.00;98834.41;4995759;28;20046;-77
2021/09/22 07:40:54;;;;;;;35.70;9.25;;;;;;;14.14;100.00;98833.81;4995138;28;20045;-79
2021/09/22 07:43:21;;;;;;;28.90;8.73;;;;;;;14.47;100.00;98843.38;5019573;28;20053;-80
2021/09/22 07:45:48;;;;;;;37.53;8.23;;;;;;;14.52;100.00;98842.44;4984381;28;20196;-78
2021/09/22 07:48:16;;;;;;;30.88;8.07;;;;;;;14.42;100.00;98829.88;5019234;28;20460;-79
2021/09/22 07:50:44;;;;;;;29.60;7.60;;;;;;;14.60;100.00;98838.97;5015707;28;20044;-80
2021/09/22 07:53:10;;;;;;;34.60;7.68;;;;;;;14.60;100.00;98836.22;5001761;28;20042;-80
2021/09/22 07:55:44;;;;;;;33.13;8.23;;;;;;;14.08;100.00;98843.19;5020824;28;20037;-79
2021/09/22 07:58:10;;;;;;;31.55;7.90;;;;;;;14.17;100.00;98833.16;5004301;28;20096;-79
2021/09/22 08:00:37;;;;;;;37.28;7.05;;;;;;;14.25;100.00;98838.69;5015887;28;20044;-79
2021/09/22 08:03:04;;;;;;;33.75;7.35;;;;;;;14.32;100.00;98844.53;4993778;28;20494;-78
2021/09/22 08:05:36;;;;;;;40.53;7.20;;;;;;;14.41;100.00;98844.59;4993898;28;20053;-79
2021/09/22 08:08:06;;;;;;;30.98;7.88;;;;;;;14.13;100.00;98843.88;4994821;28;20062;-78
2021/09/22 08:10:33;;;;;;;33.60;8.13;;;;;;;14.16;100.00;98829.66;4990149;28;20046;-79
2021/09/22 08:13:00;;;;;;;36.22;7.65;;;;;;;14.11;100.00;98839.84;4994629;28;20070;-79
2021/09/22 08:15:27;;;;;;;36.33;8.05;;;;;;;13.98;100.00;98844.25;5012165;28;20469;-79
2021/09/22 08:17:54;;;;;;;30.75;7.93;;;;;;;13.97;100.00;98853.50;4993403;28;20451;-79
2021/09/22 08:20:22;;;;;;;32.78;7.55;;;;;;;14.23;100.00;98840.91;5012406;28;20482;-78
2021/09/22 08:22:48;;;;;;;37.92;8.18;;;;;;;14.20;100.00;98846.16;5012095;28;20050;-79
2021/09/22 08:25:15;;;;;;;37.25;7.85;;;;;;;14.39;100.00;98843.31;4994954;28;20053;-79
2021/09/22 08:27:44;;;;;;;32.58;7.18;;;;;;;14.53;100.00;98844.06;5012853;28;20117;-79
2021/09/22 08:30:11;;;;;;;43.67;6.97;;;;;;;14.32;100.00;98830.13;4994916;28;20046;-79
2021/09/22 08:32:38;;;;;;;27.85;6.47;;;;;;;14.60;100.00;98852.59;5010361;28;20053;-78
2021/09/22 08:35:05;;;;;;;33.35;6.18;;;;;;;14.60;100.00;98847.94;5029393;28;20049;-78
2021/09/22 08:37:32;;;;;;;28.83;5.90;;;;;;;14.61;100.00;98846.00;5005536;28;20054;-81
2021/09/22 08:39:59;;;;;;;33.67;7.30;;;;;;;14.78;100.00;98846.94;4992810;28;20049;-78
2021/09/22 08:42:25;;;;;;;29.27;7.28;;;;;;;15.01;100.00;98855.88;5010286;28;20049;-80
2021/09/22 08:44:52;;;;;;;32.58;6.93;;;;;;;14.93;100.00;98860.16;4992011;28;20054;-78
2021/09/22 08:47:20;;;;;;;29.17;7.32;;;;;;;14.94;100.00;98867.22;5010615;28;20044;-79
2021/09/22 08:49:49;;;;;;;32.67;7.68;;;;;;;14.87;100.00;98868.78;4992611;28;20567;-78
2021/09/22 08:52:15;;;;;;;27.98;7.90;;;;;;;14.78;100.00;98867.94;5008269;28;20057;-79
2021/09/22 08:54:43;;;;;;;31.10;8.07;;;;;;;15.00;100.00;98867.88;4992426;28;20466;-79
2021/09/22 08:57:10;;;;;;;34.90;7.68;;;;;;;14.86;100.00;98876.16;5011403;28;20041;-81
2021/09/22 08:59:42;;;;;;;30.50;7.28;;;;;;;15.35;100.00;98877.03;4992315;28;20037;-78
2021/09/22 09:02:17;;;;;;;26.80;5.68;;;;;;;15.23;100.00;98874.88;4989874;28;20131;-79
2021/09/22 09:05:02;;;;;;;32.85;6.28;;;;;;;14.77;100.00;98863.59;5008525;28;20050;-79
2021/09/22 09:07:31;;;;;;;31.92;7.70;;;;;;;14.76;100.00;98872.91;4988730;28;20038;-79
2021/09/22 09:10:07;;;;;;;31.60;7.78;;;;;;;14.53;100.00;98863.13;5011997;28;20056;-78
2021/09/22 09:12:34;;;;;;;33.55;7.30;;;;;;;14.29;100.00;98868.84;4995817;28;20049;-79
2021/09/22 09:15:08;;;;;;;28.67;7.65;;;;;;;14.24;100.00;98872.50;5011768;28;20104;-78
2021/09/22 09:17:47;;;;;;;27.55;6.85;;;;;;;14.38;100.00;98871.66;5011050;28;20624;-77
2021/09/22 09:20:23;;;;;;;26.45;6.53;;;;;;;14.81;100.00;98870.81;5007155;28;20516;-78
2021/09/22 09:23:06;;;;;;;27.52;6.65;;;;;;;15.92;100.00;98861.47;5005811;28;20221;-79
2021/09/22 09:25:41;;;;;;;35.03;6.35;;;;;;;15.95;100.00;98872.53;4992289;28;20060;-77
2021/09/22 09:28:33;;;;;;;34.95;6.15;;;;;;;16.28;100.00;98866.63;5007647;28;20061;-80
2021/09/22 09:31:03;;;;;;;24.02;5.40;;;;;;;16.45;100.00;98877.53;4989823;28;20060;-80
2021/09/22 09:33:36;;;;;;;33.25;6.65;;;;;;;16.10;100.00;98874.81;4989043;28;20053;-80
2021/09/22 09:36:14;;;;;;;29.73;7.28;;;;;;;16.08;100.00;98874.31;5011078;28;20049;-80
2021/09/22 09:38:52;;;;;;;26.50;6.00;;;;;;;16.30;100.00;98881.59;4991676;28;20057;-81
2021/09/22 09:41:33;;;;;;;24.92;6.47;;;;;;;17.02;100.00;98868.00;4993068;28;20046;-80
2021/09/22 09:44:02;;;;;;;23.67;6.18;;;;;;;17.14;100.00;98862.63;5010993;28;20226;-80
2021/09/22 09:46:30;;;;;;;24.20;5.22;;;;;;;17.09;100.00;98865.53;5025797;28;20077;-79
2021/09/22 09:49:04;;;;;;;28.52;6.25;;;;;;;16.62;100.00;98866.66;5004354;28;20096;-80
2021/09/22 09:51:40;;;;;;;28.93;5.43;;;;;;;16.18;100.00;98859.56;5029421;28;20048;-78
2021/09/22 09:54:17;;;;;;;27.83;5.35;;;;;;;16.06;100.00;98862.13;5027192;28;20053;-78
2021/09/22 09:56:45;;;;;;;23.70;5.22;;;;;;;15.81;100.00;98866.44;5010388;28;20049;-81
2021/09/22 09:59:14;;;;;;;27.40;5.10;;;;;;;15.82;100.00;98861.78;5030999;28;20049;-80
2021/09/22 10:01:46;;;;;;;26.02;5.25;;;;;;;15.77;100.00;98872.84;5016499;28;20137;-80
2021/09/22 10:04:16;;;;;;;29.63;4.38;;;;;;;17.20;100.00;98852.31;5010845;28;20124;-80
2021/09/22 10:06:43;;;;;;;23.05;3.97;;;;;;;18.45;100.00;98862.34;5010255;28;20410;-81
2021/09/22 10:09:11;;;;;;;25.67;4.07;;;;;;;18.90;100.00;98848.66;4973089;28;20046;-79
2021/09/22 10:11:41;;;;;;;16.25;3.42;;;;;;;19.20;100.00;98853.63;5006720;28;20046;-79
2021/09/22 10:14:08;;;;;;;22.42;3.90;;;;;;;17.92;100.00;98854.84;4988356;28;20053;-79
2021/09/22 10:16:36;;;;;;;19.63;3.47;;;;;;;17.21;100.00;98846.53;5007631;28;20155;-79
2021/09/22 10:19:06;;;;;;;21.05;4.20;;;;;;;17.24;100.00;98850.53;5007134;28;20049;-79
2021/09/22 10:21:34;;;;;;;24.85;3.83;;;;;;;17.47;100.00;98848.34;4989579;28;20042;-79
2021/09/22 10:24:08;;;;;;;24.23;4.35;;;;;;;17.35;100.00;98847.09;5010448;28;20049;-79
2021/09/22 10:26:36;;;;;;;27.73;4.70;;;;;;;17.13;100.00;98852.81;5014077;28;20044;-79
2021/09/22 10:29:27;;;;;;;23.30;4.43;;;;;;;16.94;100.00;98844.19;5012590;28;20057;-79
2021/09/22 10:31:56;;;;;;;31.67;4.78;;;;;;;16.85;100.00;98824.28;5032198;23;20403;-81
2021/09/22 10:34:36;;;;;;;32.42;4.53;;;;;;;16.95;100.00;98828.59;4970512;28;20058;-82
2021/09/22 10:37:25;;;;;;;19.00;4.43;;;;;;;17.23;100.00;98837.97;4986538;28;20522;-80
2021/09/22 10:39:51;;;;;;;25.73;4.28;;;;;;;17.21;100.00;98829.28;4970387;28;20119;-80
2021/09/22 10:42:34;;;;;;;24.92;4.43;;;;;;;17.67;100.00;98836.63;4965300;28;20054;-81
2021/09/22 10:45:20;;;;;;;22.35;3.88;;;;;;;17.48;100.00;98830.75;4981344;28;20057;-81
2021/09/22 10:47:48;;;;;;;27.75;4.63;;;;;;;17.68;100.00;98841.78;5006079;28;20041;-80
2021/09/22 10:50:39;;;;;;;19.38;3.70;;;;;;;18.34;100.00;98836.44;4989111;28;20053;-81
2021/09/22 10:53:40;;;;;;;21.30;3.90;;;;;;;18.68;100.00;98834.19;4987285;28;20042;-81
2021/09/22 10:56:15;;;;;;;18.38;3.47;;;;;;;19.65;100.00;98817.84;4989909;28;20042;-81
2021/09/22 10:58:49;;;;;;;22.88;3.63;;;;;;;19.46;96.72;98828.63;4989675;28;20042;-82
2021/09/22 11:01:31;;;;;;;24.85;3.65;;;;;;;18.75;100.00;98822.69;5006810;28;20050;-81
2021/09/22 11:04:03;;;;;;;20.65;3.75;;;;;;;18.29;100.00;98833.91;4977160;28;20053;-82
2021/09/22 11:06:42;;;;;;;18.80;3.60;;;;;;;17.50;100.00;98832.03;5011191;28;20427;-82
2021/09/22 11:09:22;;;;;;;25.75;3.67;;;;;;;18.31;100.00;98829.72;4977068;28;20120;-81
2021/09/22 11:12:01;;;;;;;21.63;3.15;;;;;;;18.66;100.00;98825.50;4993169;28;20129;-80
2021/09/22 11:14:30;;;;;;;22.90;4.00;;;;;;;19.17;100.00;98824.16;4992313;28;20060;-82
2021/09/22 11:17:10;;;;;;;22.75;3.40;;;;;;;19.18;100.00;98824.91;4994382;28;20465;-82
2021/09/22 11:19:38;;;;;;;17.25;3.60;;;;;;;18.95;95.41;98827.28;4993401;28;20041;-82
2021/09/22 11:22:08;;;;;;;22.75;3.53;;;;;;;19.01;94.33;98828.69;4994336;28;20055;-82
2021/09/22 11:24:36;;;;;;;21.33;3.10;;;;;;;18.80;89.66;98821.66;4977710;28;20049;-81
2021/09/22 11:27:08;;;;;;;16.48;3.42;;;;;;;19.34;90.54;98823.09;4993465;28;20045;-80
2021/09/22 11:29:46;;;;;;;16.70;2.78;;;;;;;19.95;73.80;98814.84;5012255;28;20061;-82
2021/09/22 11:32:28;;;;;;;17.23;3.15;;;;;;;20.98;70.09;98817.34;4983914;28;20052;-81
2021/09/22 11:34:58;;;;;;;14.95;3.35;;;;;;;21.93;59.15;98813.41;5010433;28;20057;-80
2021/09/22 11:37:31;;;;;;;13.30;2.95;;;;;;;22.62;54.18;98814.41;4992596;28;20049;-81
2021/09/22 11:40:08;;;;;;;17.38;3.20;;;;;;;22.41;53.17;98809.28;5010722;28;20146;-81